Time;durP1;ratioP1;P1;durP2;ratioP2;P2;SDS_P1;SDS_P2;PMS_P1;PMS_P2;Temp;Humidity;BMP_temperature;BMP_pressure;BME280_temperature;BME280_humidity;BME280_pressure;Samples;Min_cycle;Max_cycle;Signal;HPM_P1;HPM_P2
2022/03/25 00:00:25;;;;;;;34.10;16.40;;;10.30;51.80;;;;;;5078003;28;20535;-49
2022/03/25 00:02:52;;;;;;;34.07;16.80;;;10.20;51.90;;;;;;5078257;28;20473;-48
2022/03/25 00:05:19;;;;;;;38.60;18.73;;;10.20;52.20;;;;;;5078284;28;20497;-51
2022/03/25 00:07:46;;;;;;;36.47;15.50;;;10.20;52.20;;;;;;5077470;28;20465;-47
2022/03/25 00:10:12;;;;;;;33.70;16.00;;;10.10;52.40;;;;;;5077324;28;20451;-45
2022/03/25 00:17:41;;;;;;;31.37;16.17;;;10.00;52.80;;;;;;5176956;22;20489;-57
2022/03/25 00:20:09;;;;;;;33.70;17.37;;;10.00;53.60;;;;;;5107116;28;20494;-52
2022/03/25 00:22:36;;;;;;;42.57;21.77;;;9.90;53.90;;;;;;5084594;28;20451;-50
2022/03/25 00:25:03;;;;;;;31.00;18.50;;;9.90;53.90;;;;;;5077268;28;20463;-54
2022/03/25 00:27:30;;;;;;;32.87;16.20;;;9.80;54.00;;;;;;5077977;28;20478;-48
2022/03/25 00:29:56;;;;;;;36.20;17.07;;;9.80;54.20;;;;;;5077690;28;20475;-52
2022/03/25 00:32:26;;;;;;;32.70;17.70;;;9.70;54.50;;;;;;5077795;28;20451;-53
2022/03/25 00:34:53;;;;;;;34.13;17.80;;;9.70;54.50;;;;;;5078044;28;20467;-52
2022/03/25 00:37:19;;;;;;;33.83;16.40;;;9.70;54.40;;;;;;5077646;28;20431;-50
2022/03/25 00:39:46;;;;;;;35.43;17.50;;;9.70;54.60;;;;;;5077297;28;20463;-49
2022/03/25 00:42:13;;;;;;;35.10;17.33;;;9.70;54.80;;;;;;5077038;28;20480;-46
2022/03/25 00:44:40;;;;;;;30.83;17.30;;;9.70;55.10;;;;;;5077432;28;20477;-50
2022/03/25 00:47:07;;;;;;;36.23;15.90;;;9.70;55.50;;;;;;5077169;28;20423;-51
2022/03/25 00:49:35;;;;;;;40.50;20.20;;;9.70;55.60;;;;;;5076794;28;20471;-52
2022/03/25 00:52:03;;;;;;;28.57;16.87;;;9.70;55.60;;;;;;5076376;28;20446;-54
2022/03/25 00:54:30;;;;;;;38.40;16.93;;;9.70;55.40;;;;;;5076950;28;20467;-52
2022/03/25 00:56:56;;;;;;;35.50;18.50;;;9.70;55.20;;;;;;5077503;28;20438;-48
2022/03/25 00:59:23;;;;;;;40.77;17.60;;;9.70;55.30;;;;;;5076603;28;20463;-53
2022/03/25 01:01:50;;;;;;;44.40;18.97;;;9.60;55.40;;;;;;5076796;28;20463;-53
2022/03/25 01:04:17;;;;;;;35.80;17.80;;;9.60;55.50;;;;;;5077198;28;20525;-52
2022/03/25 01:06:45;;;;;;;35.17;17.23;;;9.50;55.50;;;;;;5077598;28;20440;-48
2022/03/25 01:09:12;;;;;;;39.37;17.80;;;9.50;55.70;;;;;;5077229;28;20443;-55
2022/03/25 01:11:41;;;;;;;29.90;16.10;;;9.50;55.70;;;;;;5076869;28;20423;-52
2022/03/25 01:14:08;;;;;;;31.53;15.87;;;9.50;55.70;;;;;;5076130;28;20486;-48
2022/03/25 01:16:35;;;;;;;31.50;18.37;;;9.40;55.60;;;;;;5076594;28;20439;-50
2022/03/25 01:19:02;;;;;;;35.50;16.53;;;9.40;55.70;;;;;;5077347;28;20888;-46
2022/03/25 01:21:29;;;;;;;34.53;17.67;;;9.40;55.90;;;;;;5084270;28;20477;-52
2022/03/25 01:23:59;;;;;;;33.97;16.27;;;9.40;55.70;;;;;;5096753;28;20473;-49
2022/03/25 01:26:26;;;;;;;34.40;16.50;;;9.40;56.00;;;;;;5096279;28;20426;-48
2022/03/25 01:28:55;;;;;;;35.13;17.33;;;9.40;56.00;;;;;;5096590;28;20472;-45
2022/03/25 01:31:22;;;;;;;34.83;17.43;;;9.30;56.10;;;;;;5096594;28;20480;-51
2022/03/25 01:33:49;;;;;;;33.90;15.77;;;9.30;56.10;;;;;;5096220;28;20442;-53
2022/03/25 01:36:18;;;;;;;41.03;17.47;;;9.30;56.10;;;;;;5096063;28;20466;-50
2022/03/25 01:38:45;;;;;;;34.53;17.53;;;9.30;56.20;;;;;;5096308;28;20474;-54
2022/03/25 01:41:16;;;;;;;36.07;17.40;;;9.30;56.30;;;;;;5095711;28;20477;-49
2022/03/25 01:43:44;;;;;;;34.33;15.10;;;9.30;56.40;;;;;;5096525;28;20793;-51
2022/03/25 01:46:10;;;;;;;35.30;16.03;;;9.30;56.40;;;;;;5096611;28;20435;-48
2022/03/25 01:48:37;;;;;;;34.20;17.67;;;9.30;56.40;;;;;;5096533;28;20438;-50
2022/03/25 01:51:04;;;;;;;32.77;16.20;;;9.30;56.20;;;;;;5096521;28;20435;-50
2022/03/25 01:53:31;;;;;;;28.90;16.30;;;9.30;56.50;;;;;;5095596;28;20438;-47
2022/03/25 01:55:59;;;;;;;27.57;15.23;;;9.30;57.20;;;;;;5095306;28;20837;-50
2022/03/25 01:58:29;;;;;;;30.27;15.23;;;9.40;57.00;;;;;;5095876;28;20438;-51
2022/03/25 02:00:56;;;;;;;34.43;16.40;;;9.40;57.10;;;;;;5095624;28;20478;-47
2022/03/25 02:03:23;;;;;;;30.70;16.13;;;9.30;56.80;;;;;;5094986;28;20430;-52
2022/03/25 02:05:50;;;;;;;40.03;18.83;;;9.30;56.70;;;;;;5095426;28;20462;-50
2022/03/25 02:08:17;;;;;;;28.20;15.90;;;9.20;56.90;;;;;;5095691;28;20473;-46
2022/03/25 02:10:45;;;;;;;31.93;16.07;;;9.20;56.80;;;;;;5095692;28;20462;-50
2022/03/25 02:13:12;;;;;;;33.10;15.73;;;9.20;56.90;;;;;;5095629;28;20477;-47
2022/03/25 02:15:43;;;;;;;26.87;15.27;;;9.20;57.00;;;;;;5095363;28;20466;-51
2022/03/25 02:18:14;;;;;;;30.63;14.90;;;9.10;57.10;;;;;;5095256;28;20431;-53
2022/03/25 02:20:42;;;;;;;25.70;14.07;;;9.00;57.10;;;;;;5080708;28;20479;-47
2022/03/25 02:23:10;;;;;;;20.67;14.30;;;9.00;57.30;;;;;;5074855;28;20454;-53
2022/03/25 02:25:40;;;;;;;35.77;15.43;;;9.00;57.40;;;;;;5074978;28;20482;-55
2022/03/25 02:28:07;;;;;;;33.97;17.50;;;8.90;57.40;;;;;;5075120;28;20438;-53
2022/03/25 02:30:36;;;;;;;28.20;15.07;;;8.90;57.50;;;;;;5075337;28;20520;-51
2022/03/25 02:33:04;;;;;;;28.47;15.07;;;8.90;57.70;;;;;;5075523;28;20420;-46
2022/03/25 02:35:42;;;;;;;29.47;16.57;;;8.90;57.80;;;;;;5075783;28;20458;-54
2022/03/25 02:38:12;;;;;;;33.57;16.10;;;8.90;58.20;;;;;;5075098;28;20427;-54
2022/03/25 02:40:39;;;;;;;33.07;17.40;;;8.90;58.20;;;;;;5075314;28;20497;-52
2022/03/25 02:43:07;;;;;;;30.10;16.13;;;8.80;58.20;;;;;;5075562;28;20506;-49
2022/03/25 02:45:34;;;;;;;32.80;16.27;;;8.80;58.30;;;;;;5074488;28;20469;-52
2022/03/25 02:48:02;;;;;;;36.13;16.23;;;8.90;58.60;;;;;;5074735;28;20459;-45
2022/03/25 02:50:30;;;;;;;31.63;15.73;;;8.80;58.70;;;;;;5074826;28;20466;-52
2022/03/25 02:52:57;;;;;;;27.40;15.63;;;8.90;58.80;;;;;;5074782;28;20487;-48
2022/03/25 02:55:25;;;;;;;35.67;15.67;;;8.80;58.90;;;;;;5074566;28;20459;-50
2022/03/25 02:57:52;;;;;;;35.10;17.50;;;8.80;59.10;;;;;;5074936;28;20466;-46
2022/03/25 03:00:20;;;;;;;41.87;15.87;;;8.80;59.20;;;;;;5074566;28;20467;-51
2022/03/25 03:02:47;;;;;;;35.93;16.80;;;8.80;59.30;;;;;;5075220;28;20515;-47
2022/03/25 03:05:14;;;;;;;27.93;14.63;;;8.80;59.80;;;;;;5074443;28;20467;-50
2022/03/25 03:07:41;;;;;;;26.77;16.30;;;8.70;59.50;;;;;;5074550;28;20434;-50
2022/03/25 03:10:09;;;;;;;29.27;14.50;;;8.70;60.10;;;;;;5074333;28;20436;-51
2022/03/25 03:12:41;;;;;;;23.93;13.67;;;8.70;60.90;;;;;;5074219;28;20443;-54
2022/03/25 03:15:10;;;;;;;27.10;15.07;;;8.60;61.70;;;;;;5074613;28;20432;-53
2022/03/25 03:17:36;;;;;;;26.47;13.40;;;8.60;61.40;;;;;;5074449;28;20432;-50
2022/03/25 03:20:04;;;;;;;35.30;15.07;;;8.60;61.60;;;;;;5074211;28;20850;-50
2022/03/25 03:22:31;;;;;;;36.00;14.20;;;8.50;61.60;;;;;;5074313;28;20464;-52
2022/03/25 03:24:58;;;;;;;28.10;15.00;;;8.50;62.00;;;;;;5074523;28;20419;-47
2022/03/25 03:27:25;;;;;;;27.60;13.60;;;8.50;61.90;;;;;;5074954;28;20455;-49
2022/03/25 03:29:55;;;;;;;29.13;14.57;;;8.40;62.30;;;;;;5073912;28;20447;-51
2022/03/25 03:32:22;;;;;;;29.63;15.20;;;8.40;62.60;;;;;;5074641;28;20430;-49
2022/03/25 03:34:49;;;;;;;25.90;14.27;;;8.40;63.00;;;;;;5074228;28;20447;-47
2022/03/25 03:37:17;;;;;;;25.30;14.17;;;8.40;63.60;;;;;;5074061;28;20455;-48
2022/03/25 03:39:46;;;;;;;32.63;15.80;;;8.40;64.50;;;;;;5074259;28;20443;-50
2022/03/25 03:42:12;;;;;;;27.27;13.83;;;8.40;65.40;;;;;;5074389;28;20479;-51
2022/03/25 03:44:40;;;;;;;37.37;14.90;;;8.40;66.00;;;;;;5074215;28;20446;-52
2022/03/25 03:47:10;;;;;;;26.97;14.00;;;8.40;66.60;;;;;;5074340;28;20473;-49
2022/03/25 03:49:38;;;;;;;32.57;15.30;;;8.40;66.90;;;;;;5074437;28;20427;-50
2022/03/25 03:52:06;;;;;;;28.20;14.47;;;8.40;67.30;;;;;;5074766;28;20455;-49
2022/03/25 03:54:33;;;;;;;31.97;12.97;;;8.40;67.70;;;;;;5075024;28;20485;-51
2022/03/25 03:57:00;;;;;;;22.93;12.43;;;8.40;68.20;;;;;;5074765;28;20457;-51
2022/03/25 03:59:29;;;;;;;24.90;13.27;;;8.30;68.80;;;;;;5074445;28;20471;-54
2022/03/25 04:01:55;;;;;;;33.67;13.77;;;8.30;69.70;;;;;;5073775;28;20486;-47
2022/03/25 04:04:23;;;;;;;26.87;13.90;;;8.20;70.10;;;;;;5074338;28;20473;-49
2022/03/25 04:06:50;;;;;;;25.23;14.37;;;8.30;70.60;;;;;;5074207;28;20444;-48
2022/03/25 04:09:17;;;;;;;26.87;13.50;;;8.30;71.20;;;;;;5073723;28;20477;-50
2022/03/25 04:11:43;;;;;;;31.00;13.33;;;8.30;71.60;;;;;;5073623;28;20463;-48
2022/03/25 04:14:10;;;;;;;29.90;14.37;;;8.30;72.10;;;;;;5074279;28;20581;-51
2022/03/25 04:16:37;;;;;;;22.63;11.80;;;8.30;72.60;;;;;;5074341;28;20497;-53
2022/03/25 04:19:04;;;;;;;28.53;15.37;;;8.40;72.90;;;;;;5073315;28;20965;-53
2022/03/25 04:21:32;;;;;;;30.20;14.90;;;8.40;73.30;;;;;;5073668;28;20462;-50
2022/03/25 04:23:59;;;;;;;25.50;14.60;;;8.40;73.50;;;;;;5073768;28;20438;-50
2022/03/25 04:26:26;;;;;;;34.40;14.30;;;8.40;73.80;;;;;;5075310;28;20467;-46
2022/03/25 04:28:52;;;;;;;24.07;12.63;;;8.50;74.50;;;;;;5077534;28;20459;-53
2022/03/25 04:31:19;;;;;;;32.50;16.40;;;8.50;74.70;;;;;;5077198;28;20463;-48
2022/03/25 04:33:46;;;;;;;30.20;13.27;;;8.40;75.10;;;;;;5077703;28;20439;-47
2022/03/25 04:36:13;;;;;;;29.93;14.97;;;8.40;75.60;;;;;;5077475;28;20947;-49
2022/03/25 04:38:41;;;;;;;22.07;14.07;;;8.40;75.60;;;;;;5077146;28;20453;-54
2022/03/25 04:41:09;;;;;;;31.07;15.23;;;8.40;75.70;;;;;;5077436;28;20459;-50
2022/03/25 04:43:36;;;;;;;31.07;14.00;;;8.30;76.10;;;;;;5077113;28;20471;-50
2022/03/25 04:46:03;;;;;;;24.97;13.97;;;8.30;77.00;;;;;;5076904;28;20479;-46
2022/03/25 04:48:30;;;;;;;24.47;14.47;;;8.30;77.50;;;;;;5075720;28;20451;-38
2022/03/25 04:50:56;;;;;;;28.60;13.30;;;8.20;78.50;;;;;;5076818;28;20442;-52
2022/03/25 04:53:25;;;;;;;28.53;14.10;;;8.20;79.00;;;;;;5077453;28;20483;-45
2022/03/25 04:55:53;;;;;;;35.33;13.73;;;8.20;80.10;;;;;;5076873;28;20470;-50
2022/03/25 04:58:20;;;;;;;23.43;12.47;;;8.20;80.70;;;;;;5076979;28;20434;-50
2022/03/25 05:00:46;;;;;;;27.27;14.90;;;8.20;80.80;;;;;;5077843;28;20469;-45
2022/03/25 05:03:13;;;;;;;26.50;14.23;;;8.20;80.80;;;;;;5076916;28;20490;-47
2022/03/25 05:05:42;;;;;;;30.10;13.27;;;8.20;81.80;;;;;;5076976;28;20427;-49
2022/03/25 05:08:10;;;;;;;30.20;14.43;;;8.20;81.90;;;;;;5076474;28;20447;-45
2022/03/25 05:10:37;;;;;;;30.07;14.20;;;8.20;82.20;;;;;;5077036;28;20447;-46
2022/03/25 05:13:06;;;;;;;30.67;14.77;;;8.30;82.70;;;;;;5077231;28;20456;-46
2022/03/25 05:15:32;;;;;;;25.10;14.40;;;8.30;84.00;;;;;;5076887;28;20447;-53
2022/03/25 05:18:01;;;;;;;31.53;14.87;;;8.30;83.30;;;;;;5076459;28;20439;-48
2022/03/25 05:20:28;;;;;;;30.30;14.30;;;8.30;83.80;;;;;;5076631;28;20489;-48
2022/03/25 05:22:55;;;;;;;27.30;15.10;;;8.20;84.70;;;;;;5076549;28;20486;-51
2022/03/25 05:25:22;;;;;;;31.40;15.20;;;8.20;84.70;;;;;;5077043;28;20435;-49
2022/03/25 05:27:50;;;;;;;26.70;15.43;;;8.20;85.30;;;;;;5076380;28;20447;-45
2022/03/25 05:30:24;;;;;;;31.47;15.87;;;8.20;87.00;;;;;;5076515;28;20444;-45
2022/03/25 05:32:51;;;;;;;24.80;13.17;;;8.20;87.00;;;;;;5074767;28;20531;-50
2022/03/25 05:35:19;;;;;;;31.77;16.30;;;8.10;88.20;;;;;;5056229;28;20447;-52
2022/03/25 05:37:45;;;;;;;31.47;13.83;;;8.20;89.30;;;;;;5055126;28;20533;-51
2022/03/25 05:40:13;;;;;;;29.83;16.23;;;8.10;90.00;;;;;;5056683;28;20504;-53
2022/03/25 05:42:42;;;;;;;31.07;15.67;;;8.20;90.20;;;;;;5056597;28;20513;-48
2022/03/25 05:45:10;;;;;;;28.97;14.93;;;8.20;90.00;;;;;;5058037;28;20463;-47
2022/03/25 05:47:40;;;;;;;24.00;14.00;;;8.20;90.00;;;;;;5057299;28;20475;-54
2022/03/25 05:50:09;;;;;;;22.70;14.97;;;8.20;89.60;;;;;;5056340;28;20444;-50
2022/03/25 05:52:36;;;;;;;28.30;15.37;;;8.20;88.80;;;;;;5055607;28;20467;-49
2022/03/25 05:55:04;;;;;;;26.03;14.80;;;8.20;89.60;;;;;;5056047;28;20459;-54
2022/03/25 05:57:31;;;;;;;24.83;14.20;;;8.20;89.50;;;;;;5055854;28;20481;-50
2022/03/25 05:59:59;;;;;;;31.73;14.20;;;8.30;88.90;;;;;;5055874;28;20450;-47
2022/03/25 06:02:26;;;;;;;24.80;14.40;;;8.30;89.40;;;;;;5055716;28;20483;-50
2022/03/25 06:04:55;;;;;;;30.80;15.43;;;8.30;89.30;;;;;;5055728;28;20447;-49
2022/03/25 06:07:22;;;;;;;25.83;14.87;;;8.30;88.90;;;;;;5055577;28;20540;-48
2022/03/25 06:09:49;;;;;;;26.10;14.23;;;8.40;88.40;;;;;;5055342;28;20455;-49
2022/03/25 06:12:16;;;;;;;31.13;13.00;;;8.40;87.80;;;;;;5055292;28;20466;-54
2022/03/25 06:14:43;;;;;;;27.77;14.90;;;8.50;87.30;;;;;;5055693;28;20451;-52
2022/03/25 06:17:10;;;;;;;24.13;14.63;;;8.50;86.30;;;;;;5055503;28;20483;-53
2022/03/25 06:19:36;;;;;;;33.20;15.40;;;8.60;86.10;;;;;;5055467;28;20467;-50
2022/03/25 06:22:04;;;;;;;31.00;13.60;;;8.60;85.50;;;;;;5055343;28;20463;-51
2022/03/25 06:24:31;;;;;;;42.53;16.80;;;8.70;85.20;;;;;;5055389;28;20486;-52
2022/03/25 06:26:58;;;;;;;31.70;16.20;;;8.70;84.60;;;;;;5055297;28;20459;-52
2022/03/25 06:29:25;;;;;;;24.57;13.50;;;8.80;83.80;;;;;;5055363;28;20489;-55
2022/03/25 06:31:51;;;;;;;24.57;15.43;;;8.90;83.20;;;;;;5054871;28;20454;-50
2022/03/25 06:34:20;;;;;;;27.70;14.10;;;9.00;82.50;;;;;;5055226;28;20420;-52
2022/03/25 06:36:49;;;;;;;26.07;14.67;;;9.00;82.40;;;;;;5054799;28;20459;-50
2022/03/25 06:39:17;;;;;;;26.13;14.17;;;9.10;81.60;;;;;;5055182;28;20442;-54
2022/03/25 06:41:44;;;;;;;35.17;15.00;;;9.10;81.30;;;;;;5054932;28;20443;-49
2022/03/25 06:44:11;;;;;;;28.60;13.30;;;9.10;80.40;;;;;;5054879;28;20479;-52
2022/03/25 06:46:37;;;;;;;27.00;13.17;;;9.20;79.80;;;;;;5054724;28;20512;-51
2022/03/25 06:49:05;;;;;;;31.90;15.77;;;9.30;79.10;;;;;;5054577;28;20478;-50
2022/03/25 06:51:32;;;;;;;32.33;15.10;;;9.40;79.00;;;;;;5054758;28;20454;-49
2022/03/25 06:53:59;;;;;;;36.13;16.13;;;9.40;78.90;;;;;;5054699;28;20455;-51
2022/03/25 06:56:28;;;;;;;28.20;15.73;;;9.50;78.40;;;;;;5054555;28;20439;-51
2022/03/25 06:58:56;;;;;;;28.53;14.97;;;9.60;78.20;;;;;;5054474;28;20451;-51
2022/03/25 07:01:23;;;;;;;32.97;15.93;;;9.60;78.40;;;;;;5054523;28;20443;-48
2022/03/25 07:03:50;;;;;;;26.50;14.40;;;9.70;78.40;;;;;;5037436;28;20540;-49
2022/03/25 07:06:23;;;;;;;30.33;14.60;;;9.80;78.40;;;;;;5054349;28;20443;-55
2022/03/25 07:08:53;;;;;;;30.60;14.33;;;9.90;78.50;;;;;;5054517;28;20458;-49
2022/03/25 07:11:21;;;;;;;28.40;15.00;;;9.90;79.20;;;;;;5054601;28;20443;-50
2022/03/25 07:13:50;;;;;;;38.67;17.10;;;10.00;78.60;;;;;;5054406;28;20475;-51
2022/03/25 07:16:17;;;;;;;33.93;15.60;;;10.10;79.20;;;;;;5054718;28;20561;-54
2022/03/25 07:18:44;;;;;;;36.80;14.00;;;10.20;79.20;;;;;;5054519;28;20555;-52
2022/03/25 07:21:11;;;;;;;35.27;16.27;;;10.30;79.90;;;;;;5054294;28;20462;-48
2022/03/25 07:23:37;;;;;;;31.10;15.93;;;10.40;81.00;;;;;;5054371;28;20564;-55
2022/03/25 07:26:04;;;;;;;28.87;15.47;;;10.50;78.70;;;;;;5054227;28;20455;-53
2022/03/25 07:28:31;;;;;;;36.43;14.63;;;10.60;76.00;;;;;;5054547;28;20483;-56
2022/03/25 07:30:59;;;;;;;38.63;13.70;;;10.80;75.60;;;;;;5054485;28;20454;-50
2022/03/25 07:33:26;;;;;;;28.23;13.77;;;11.00;76.70;;;;;;5054214;28;20467;-53
2022/03/25 07:35:53;;;;;;;36.87;16.00;;;11.10;74.50;;;;;;5054330;28;20447;-48
2022/03/25 07:38:20;;;;;;;29.40;13.53;;;11.20;71.90;;;;;;5054399;28;20470;-51
2022/03/25 07:40:47;;;;;;;29.47;14.40;;;11.40;70.10;;;;;;5054361;28;20435;-52
2022/03/25 07:43:14;;;;;;;34.77;14.13;;;11.50;70.50;;;;;;5054694;28;20487;-49
2022/03/25 07:45:40;;;;;;;24.77;12.90;;;11.60;69.50;;;;;;5054556;28;20505;-49
2022/03/25 07:48:09;;;;;;;43.83;14.77;;;11.70;68.40;;;;;;5053926;28;20955;-48
2022/03/25 07:50:36;;;;;;;28.27;14.67;;;11.80;67.90;;;;;;5054283;28;20460;-53
2022/03/25 07:53:02;;;;;;;27.20;14.83;;;12.00;68.10;;;;;;5054295;28;20467;-55
2022/03/25 07:55:29;;;;;;;29.50;14.30;;;12.10;67.60;;;;;;5054116;28;20481;-54
2022/03/25 07:57:57;;;;;;;28.77;14.30;;;12.20;68.50;;;;;;5054270;28;20532;-48
2022/03/25 08:00:24;;;;;;;39.27;16.10;;;12.40;67.30;;;;;;5054103;28;20467;-59
2022/03/25 08:02:53;;;;;;;33.20;15.60;;;12.50;65.20;;;;;;5057789;28;20551;-52
2022/03/25 08:05:21;;;;;;;33.87;16.00;;;12.60;64.50;;;;;;5057988;28;20451;-50
2022/03/25 08:07:49;;;;;;;34.83;15.27;;;12.60;64.70;;;;;;5058130;28;20554;-52
2022/03/25 08:10:18;;;;;;;32.23;14.47;;;12.70;64.20;;;;;;5057656;28;20462;-53
2022/03/25 08:12:45;;;;;;;35.97;14.80;;;12.80;64.20;;;;;;5057780;28;20461;-53
2022/03/25 08:15:14;;;;;;;41.73;18.40;;;12.90;64.00;;;;;;5058064;28;20463;-51
2022/03/25 08:17:49;;;;;;;33.47;15.93;;;13.10;64.10;;;;;;5057718;28;20483;-54
2022/03/25 08:20:21;;;;;;;35.40;15.53;;;13.30;62.60;;;;;;5057461;28;20455;-51
2022/03/25 08:22:48;;;;;;;35.00;15.17;;;13.40;61.40;;;;;;5057643;28;20435;-51
2022/03/25 08:28:01;;;;;;;26.93;14.20;;;13.70;59.80;;;;;;5058355;28;20636;-46
2022/03/25 08:30:28;;;;;;;31.57;15.07;;;14.40;58.70;;;;;;5057380;28;20537;-46
2022/03/25 08:32:56;;;;;;;29.57;14.97;;;15.70;56.50;;;;;;5057294;28;20435;-48
2022/03/25 08:35:24;;;;;;;23.73;13.43;;;17.20;53.70;;;;;;5057329;28;20745;-49
2022/03/25 08:37:53;;;;;;;25.83;14.27;;;18.60;50.20;;;;;;5057088;28;20743;-48
2022/03/25 08:40:20;;;;;;;32.53;16.37;;;19.60;47.80;;;;;;5057183;28;20435;-45
2022/03/25 08:42:47;;;;;;;33.53;17.53;;;20.70;46.70;;;;;;5057103;28;20466;-47
2022/03/25 08:45:15;;;;;;;40.13;17.20;;;22.00;44.50;;;;;;5057146;28;20439;-48
2022/03/25 08:47:42;;;;;;;28.27;17.93;;;23.20;42.50;;;;;;5057166;28;20447;-46
2022/03/25 08:50:09;;;;;;;36.77;17.77;;;23.90;41.10;;;;;;5057463;28;20452;-50
2022/03/25 08:52:37;;;;;;;28.20;18.20;;;24.60;39.80;;;;;;5056956;28;20982;-45
2022/03/25 08:55:06;;;;;;;37.33;20.50;;;25.00;39.10;;;;;;5056917;28;20435;-48
2022/03/25 08:57:34;;;;;;;30.80;19.50;;;25.10;38.60;;;;;;5057265;28;20462;-49
2022/03/25 09:00:00;;;;;;;32.57;18.20;;;25.30;38.70;;;;;;5057136;28;20494;-48
2022/03/25 09:02:27;;;;;;;37.20;19.60;;;25.40;37.70;;;;;;5056583;28;20452;-51
2022/03/25 09:04:54;;;;;;;32.77;19.40;;;25.40;37.40;;;;;;5056653;28;20471;-46
2022/03/25 09:07:20;;;;;;;33.33;18.77;;;25.00;37.10;;;;;;5056706;28;20463;-47
2022/03/25 09:09:49;;;;;;;30.63;20.67;;;25.30;37.10;;;;;;5059615;28;20472;-43
2022/03/25 09:12:17;;;;;;;32.37;21.17;;;25.30;37.20;;;;;;5059396;28;20458;-46
2022/03/25 09:14:44;;;;;;;40.20;21.40;;;25.10;37.10;;;;;;5059307;28;20476;-46
2022/03/25 09:17:11;;;;;;;34.23;21.20;;;25.00;37.40;;;;;;5059753;28;20551;-48
2022/03/25 09:19:38;;;;;;;35.77;20.20;;;25.10;37.50;;;;;;5060472;28;20485;-52
2022/03/25 09:22:05;;;;;;;37.20;21.13;;;25.20;37.60;;;;;;5060732;28;20439;-46
2022/03/25 09:24:33;;;;;;;29.33;22.90;;;25.10;37.30;;;;;;5060899;28;20492;-47
2022/03/25 09:27:01;;;;;;;36.08;20.52;;;25.00;37.50;;;;;;5059210;28;20444;-49
2022/03/25 09:29:28;;;;;;;24.47;17.93;;;24.90;37.60;;;;;;5059765;28;20286;-50
2022/03/25 09:31:56;;;;;;;37.03;21.33;;;25.00;38.50;;;;;;5061306;28;20478;-46
2022/03/25 09:37:07;;;;;;;33.00;20.10;;;24.50;37.90;;;;;;5055827;28;20426;-47
2022/03/25 09:39:34;;;;;;;35.47;21.67;;;23.90;38.90;;;;;;5055371;28;20558;-46
2022/03/25 09:42:05;;;;;;;31.93;18.90;;;23.10;39.60;;;;;;5055635;28;20983;-51
2022/03/25 09:44:33;;;;;;;40.17;19.73;;;22.10;40.70;;;;;;5055744;28;20518;-46
2022/03/25 09:47:01;;;;;;;36.30;20.67;;;21.80;41.80;;;;;;5055305;28;20521;-46
2022/03/25 09:49:28;;;;;;;31.10;19.10;;;21.90;41.90;;;;;;5055385;28;20471;-44
2022/03/25 09:51:55;;;;;;;37.70;21.07;;;22.60;41.80;;;;;;5055766;28;20847;-45
2022/03/25 09:54:22;;;;;;;32.67;20.00;;;23.40;41.10;;;;;;5055357;28;20466;-52
2022/03/25 09:56:49;;;;;;;35.23;20.90;;;24.00;40.20;;;;;;5055642;28;20520;-46
2022/03/25 09:59:19;;;;;;;37.53;21.37;;;24.60;39.70;;;;;;5055428;28;20455;-49
2022/03/25 10:01:46;;;;;;;36.40;20.80;;;24.90;38.90;;;;;;5055367;28;20521;-48
2022/03/25 10:04:40;;;;;;;31.63;20.23;;;25.10;38.20;;;;;;5055146;28;20483;-51
2022/03/25 10:07:19;;;;;;;32.30;19.90;;;24.90;38.50;;;;;;5055588;28;20485;-46
2022/03/25 10:09:48;;;;;;;33.87;20.97;;;25.10;38.90;;;;;;5055354;28;20513;-50
2022/03/25 10:12:23;;;;;;;33.93;21.03;;;25.10;38.60;;;;;;5055336;28;20453;-53
2022/03/25 10:14:53;;;;;;;34.67;20.13;;;24.90;38.70;;;;;;5055197;28;20439;-46
2022/03/25 10:17:20;;;;;;;29.40;18.43;;;24.90;38.80;;;;;;5055191;28;20466;-45
2022/03/25 10:19:49;;;;;;;54.33;20.03;;;25.00;39.00;;;;;;5054901;28;20467;-46
2022/03/25 10:22:18;;;;;;;35.47;23.63;;;25.00;39.10;;;;;;5055087;28;20441;-46
2022/03/25 10:24:47;;;;;;;29.60;19.70;;;24.90;39.00;;;;;;5054370;28;20536;-47
2022/03/25 10:27:18;;;;;;;37.03;19.97;;;24.80;39.20;;;;;;5054749;28;20466;-47
2022/03/25 10:29:47;;;;;;;34.83;20.60;;;24.80;39.70;;;;;;5054348;28;20465;-46
2022/03/25 10:32:19;;;;;;;32.80;20.30;;;25.00;39.40;;;;;;5054580;28;20958;-46
2022/03/25 10:35:01;;;;;;;32.83;19.90;;;24.80;39.70;;;;;;5054674;28;20493;-46
2022/03/25 10:37:29;;;;;;;30.53;22.33;;;25.00;39.50;;;;;;5054856;28;20501;-45
2022/03/25 10:39:56;;;;;;;35.27;21.23;;;24.70;39.30;;;;;;5054498;28;20463;-47
2022/03/25 10:42:24;;;;;;;38.70;20.00;;;24.20;39.80;;;;;;5054199;28;20452;-47
2022/03/25 10:44:51;;;;;;;35.77;20.60;;;24.20;40.10;;;;;;5054497;28;20574;-45
2022/03/25 10:47:28;;;;;;;33.80;20.50;;;24.20;40.40;;;;;;5054614;28;20455;-46
2022/03/25 10:49:58;;;;;;;32.60;19.87;;;24.10;40.50;;;;;;5054620;28;20487;-47
2022/03/25 10:52:30;;;;;;;30.47;19.63;;;24.00;40.40;;;;;;5054840;28;20514;-47
2022/03/25 10:55:16;;;;;;;39.97;18.13;;;24.00;40.40;;;;;;5054596;28;20814;-46
2022/03/25 10:57:54;;;;;;;28.63;17.80;;;23.80;40.50;;;;;;5054238;28;20912;-45
2022/03/25 11:00:21;;;;;;;37.50;19.83;;;23.40;40.60;;;;;;5054062;28;20497;-42
2022/03/25 11:02:50;;;;;;;32.03;18.33;;;23.00;41.60;;;;;;5053853;28;20507;-47
2022/03/25 11:05:17;;;;;;;28.50;17.60;;;22.70;42.00;;;;;;5054250;28;20532;-49
2022/03/25 11:07:46;;;;;;;40.97;20.63;;;22.50;42.20;;;;;;5054009;28;20562;-46
2022/03/25 11:10:15;;;;;;;36.97;17.70;;;22.10;42.90;;;;;;5054412;28;20443;-44
2022/03/25 11:12:48;;;;;;;37.07;18.73;;;21.90;43.90;;;;;;5054507;28;20481;-47
2022/03/25 11:15:16;;;;;;;34.23;20.60;;;21.70;43.70;;;;;;5054416;28;20424;-46
2022/03/25 11:17:44;;;;;;;31.33;20.43;;;21.50;43.90;;;;;;5054279;28;20789;-44
2022/03/25 11:20:14;;;;;;;35.27;18.60;;;21.50;44.50;;;;;;5053843;28;20475;-46
2022/03/25 11:22:45;;;;;;;32.83;20.23;;;21.40;44.40;;;;;;5053719;28;20970;-47
2022/03/25 11:25:15;;;;;;;36.17;18.07;;;21.30;44.80;;;;;;5054290;28;20506;-46
2022/03/25 11:27:47;;;;;;;39.70;20.93;;;21.10;44.90;;;;;;5054305;28;20566;-46
2022/03/25 11:30:16;;;;;;;30.77;18.80;;;21.10;45.30;;;;;;5053999;28;20908;-43
2022/03/25 11:32:49;;;;;;;27.87;15.60;;;21.00;45.10;;;;;;5054441;28;20479;-52
2022/03/25 11:35:20;;;;;;;29.30;17.50;;;20.90;45.10;;;;;;5055818;28;20432;-46
2022/03/25 11:37:46;;;;;;;41.73;18.90;;;20.70;45.80;;;;;;5058250;28;20558;-46
2022/03/25 11:40:25;;;;;;;33.20;17.50;;;20.70;46.30;;;;;;5058091;28;20832;-48
2022/03/25 11:42:52;;;;;;;25.37;15.87;;;20.50;45.90;;;;;;5057446;28;20458;-45
2022/03/25 11:45:35;;;;;;;28.80;16.43;;;20.50;46.20;;;;;;5057822;28;20962;-44
2022/03/25 11:48:40;;;;;;;26.10;15.33;;;20.50;46.30;;;;;;5058230;28;20486;-45
2022/03/25 11:51:33;;;;;;;26.10;15.60;;;20.40;46.20;;;;;;5058029;28;20462;-46
2022/03/25 11:54:00;;;;;;;29.30;17.67;;;20.10;46.30;;;;;;5057964;28;20769;-44
2022/03/25 11:56:48;;;;;;;34.23;17.50;;;20.00;47.10;;;;;;5057834;28;20486;-48
2022/03/25 11:59:16;;;;;;;29.43;16.50;;;19.90;47.20;;;;;;5057767;28;20486;-51
2022/03/25 12:01:43;;;;;;;26.20;14.37;;;19.90;47.30;;;;;;5057532;28;21006;-45
2022/03/25 12:04:13;;;;;;;22.13;13.40;;;19.90;47.70;;;;;;5057249;28;20502;-52
2022/03/25 12:07:02;;;;;;;33.33;16.07;;;19.80;47.40;;;;;;5057772;28;20466;-45
2022/03/25 12:09:36;;;;;;;30.60;16.00;;;19.70;47.40;;;;;;5057721;28;20489;-45
2022/03/25 12:12:03;;;;;;;26.20;15.80;;;19.70;47.60;;;;;;5057522;28;20435;-48
2022/03/25 12:14:32;;;;;;;24.60;14.37;;;19.60;47.90;;;;;;5057531;28;20471;-47
2022/03/25 12:17:06;;;;;;;27.30;14.70;;;19.60;48.10;;;;;;5057279;28;20460;-45
2022/03/25 12:20:01;;;;;;;26.23;15.80;;;19.60;47.80;;;;;;5057308;28;20934;-44
2022/03/25 12:22:36;;;;;;;27.57;14.00;;;19.60;48.10;;;;;;5055190;28;20451;-48
2022/03/25 12:25:13;;;;;;;22.27;12.80;;;19.60;47.90;;;;;;5057246;28;20508;-48
2022/03/25 12:27:40;;;;;;;20.03;12.00;;;19.40;47.90;;;;;;5057302;28;20522;-50
2022/03/25 12:30:08;;;;;;;29.50;13.40;;;19.20;48.30;;;;;;5057113;28;20528;-46
2022/03/25 12:32:37;;;;;;;20.80;11.23;;;19.30;48.60;;;;;;5057240;28;20435;-50
2022/03/25 12:35:06;;;;;;;21.47;12.30;;;19.20;48.10;;;;;;5056701;28;20463;-47
2022/03/25 12:37:58;;;;;;;21.10;12.40;;;19.20;48.60;;;;;;5056928;28;20439;-44
2022/03/25 12:40:28;;;;;;;20.70;11.50;;;19.10;48.30;;;;;;5056605;28;20466;-47
2022/03/25 12:42:58;;;;;;;19.03;10.20;;;19.20;48.40;;;;;;5056745;28;20454;-46
2022/03/25 12:45:29;;;;;;;19.13;10.77;;;19.30;48.40;;;;;;5056074;28;20574;-43
2022/03/25 12:47:56;;;;;;;19.13;10.90;;;19.40;47.80;;;;;;5052372;28;20447;-46
2022/03/25 12:50:24;;;;;;;16.73;9.50;;;19.40;48.10;;;;;;5054547;28;20491;-50